createdAt,value
2018-12-31T00:01:40.320Z,12.57
2018-12-31T00:04:09.471Z,16.20
2018-12-31T00:06:38.559Z,13.40
2018-12-31T00:09:07.712Z,13.83
2018-12-31T00:11:36.597Z,12.83
2018-12-31T00:14:05.568Z,12.93
2018-12-31T00:16:34.371Z,13.43
2018-12-31T00:19:03.572Z,15.00
2018-12-31T00:21:32.481Z,14.53
2018-12-31T00:24:01.327Z,14.00
2018-12-31T00:26:30.179Z,13.03
2018-12-31T00:28:59.418Z,13.80
2018-12-31T00:31:28.267Z,13.70
2018-12-31T00:33:57.132Z,12.50
2018-12-31T00:36:26.305Z,14.13
2018-12-31T00:38:55.186Z,14.53
2018-12-31T00:41:24.295Z,14.77
2018-12-31T00:43:53.125Z,13.77
2018-12-31T00:46:21.955Z,15.77
2018-12-31T00:48:50.811Z,13.83
2018-12-31T00:51:19.704Z,14.63
2018-12-31T00:53:48.522Z,15.10
2018-12-31T00:56:17.438Z,13.40
2018-12-31T00:58:46.604Z,14.30
2018-12-31T01:01:15.416Z,12.67
2018-12-31T01:03:44.732Z,12.33
2018-12-31T01:06:13.856Z,12.83
2018-12-31T01:08:42.736Z,13.73
2018-12-31T01:11:11.542Z,14.37
2018-12-31T01:13:40.373Z,10.63
2018-12-31T01:16:09.260Z,11.10
2018-12-31T01:18:38.085Z,11.53
2018-12-31T01:21:07.160Z,10.80
2018-12-31T01:23:36.031Z,11.30
2018-12-31T01:26:05.065Z,11.23
2018-12-31T01:28:33.889Z,11.40
2018-12-31T01:31:02.719Z,11.20
2018-12-31T01:33:32.164Z,13.10
2018-12-31T01:36:01.299Z,12.60
2018-12-31T01:38:30.124Z,13.30
2018-12-31T01:40:58.977Z,11.10
2018-12-31T01:43:27.859Z,12.77
2018-12-31T01:45:56.740Z,12.20
2018-12-31T01:48:25.632Z,12.40
2018-12-31T01:50:54.435Z,12.00
2018-12-31T01:53:23.365Z,11.83
2018-12-31T01:55:52.520Z,12.87
2018-12-31T01:58:21.350Z,12.63
2018-12-31T02:00:50.273Z,12.67
2018-12-31T02:03:19.119Z,14.47
2018-12-31T02:05:47.936Z,11.67
2018-12-31T02:08:17.093Z,11.83
2018-12-31T02:10:46.004Z,12.10
2018-12-31T02:13:14.925Z,12.20
2018-12-31T02:15:43.725Z,12.10
2018-12-31T02:18:12.787Z,11.50
2018-12-31T02:20:41.615Z,10.70
2018-12-31T02:23:10.424Z,12.30
2018-12-31T02:25:39.342Z,10.23
2018-12-31T02:28:08.173Z,10.30
2018-12-31T02:30:37.084Z,12.10
2018-12-31T02:33:05.943Z,9.70
2018-12-31T02:35:34.746Z,9.27
2018-12-31T02:38:03.643Z,8.03
2018-12-31T02:40:32.502Z,9.30
2018-12-31T02:43:01.284Z,7.83
2018-12-31T02:45:30.260Z,8.10
2018-12-31T02:47:59.060Z,8.80
2018-12-31T02:50:28.096Z,8.90
2018-12-31T02:52:56.968Z,7.30
2018-12-31T02:55:25.808Z,7.47
2018-12-31T02:57:54.623Z,5.20
2018-12-31T03:00:23.534Z,6.93
2018-12-31T03:02:52.519Z,6.13
2018-12-31T03:05:21.463Z,6.13
2018-12-31T03:07:50.571Z,7.00
2018-12-31T03:10:19.389Z,6.30
2018-12-31T03:12:48.218Z,6.63
2018-12-31T03:15:17.207Z,6.37
2018-12-31T03:17:46.011Z,4.93
2018-12-31T03:20:14.811Z,5.80
2018-12-31T03:22:43.976Z,6.00
2018-12-31T03:25:12.872Z,4.80
2018-12-31T03:27:42.235Z,5.50
2018-12-31T03:30:11.395Z,5.47
2018-12-31T03:32:40.197Z,6.80
2018-12-31T03:35:09.142Z,6.10
2018-12-31T03:37:37.980Z,6.50
2018-12-31T03:40:06.961Z,7.40
2018-12-31T03:42:35.799Z,6.40
2018-12-31T03:45:05.437Z,7.20
2018-12-31T03:47:34.236Z,7.10
2018-12-31T03:50:03.268Z,7.40
2018-12-31T03:52:32.090Z,8.70
2018-12-31T03:55:00.895Z,7.17
2018-12-31T03:57:29.751Z,9.20
2018-12-31T03:59:58.582Z,8.10
2018-12-31T04:02:27.376Z,10.07
2018-12-31T04:04:56.255Z,9.10
2018-12-31T04:07:25.128Z,9.97
2018-12-31T04:09:54.304Z,9.57
2018-12-31T04:12:23.196Z,9.90
2018-12-31T04:14:52.333Z,10.20
2018-12-31T04:17:21.136Z,10.43
2018-12-31T04:19:50.311Z,11.03
2018-12-31T04:22:19.156Z,11.40
2018-12-31T04:24:47.960Z,12.43
2018-12-31T04:27:16.793Z,12.40
2018-12-31T04:29:45.828Z,12.03
2018-12-31T04:32:14.806Z,10.40
2018-12-31T04:34:43.627Z,10.63
2018-12-31T04:37:12.416Z,12.57
2018-12-31T04:39:41.319Z,11.63
2018-12-31T04:42:10.506Z,13.07
2018-12-31T04:44:39.472Z,13.67
2018-12-31T04:47:08.279Z,14.03
2018-12-31T04:49:37.099Z,14.80
2018-12-31T04:52:06.093Z,15.80
2018-12-31T04:55:00.631Z,13.93
2018-12-31T04:57:29.626Z,14.03
2018-12-31T04:59:58.424Z,14.83
2018-12-31T05:02:27.322Z,14.37
2018-12-31T05:04:56.182Z,13.10
2018-12-31T05:07:25.028Z,15.83
2018-12-31T05:09:53.965Z,12.60
2018-12-31T05:12:22.758Z,13.43
2018-12-31T05:14:52.344Z,15.23
2018-12-31T05:17:21.225Z,14.37
2018-12-31T05:19:50.024Z,16.30
2018-12-31T05:22:18.931Z,15.20
2018-12-31T05:24:47.743Z,15.87
2018-12-31T05:27:16.711Z,17.53
2018-12-31T05:29:46.289Z,15.40
2018-12-31T05:32:15.087Z,16.60
2018-12-31T05:34:44.304Z,16.60
2018-12-31T05:37:13.156Z,16.90
2018-12-31T05:39:42.263Z,17.23
2018-12-31T05:42:11.373Z,15.50
2018-12-31T05:44:40.247Z,17.57
2018-12-31T05:47:09.084Z,15.83
2018-12-31T05:49:38.189Z,17.83
2018-12-31T05:52:06.999Z,15.83
2018-12-31T05:54:36.131Z,16.43
2018-12-31T05:57:05.202Z,16.20
2018-12-31T05:59:33.997Z,15.83
2018-12-31T06:02:02.935Z,13.50
2018-12-31T06:04:31.784Z,19.50
2018-12-31T06:07:00.583Z,16.43
2018-12-31T06:09:30.023Z,15.63
2018-12-31T06:11:58.831Z,17.43
2018-12-31T06:14:27.819Z,16.40
2018-12-31T06:16:56.823Z,17.10
2018-12-31T06:19:25.938Z,17.70
2018-12-31T06:21:54.744Z,14.67
2018-12-31T06:24:23.583Z,16.40
2018-12-31T06:26:52.748Z,16.60
2018-12-31T06:29:21.719Z,16.10
2018-12-31T06:31:50.542Z,16.63
2018-12-31T06:34:19.483Z,15.70
2018-12-31T06:36:48.353Z,16.63
2018-12-31T06:39:17.311Z,18.30
2018-12-31T06:41:46.530Z,16.43
2018-12-31T06:44:15.326Z,16.87
2018-12-31T06:46:44.199Z,19.20
2018-12-31T06:49:14.210Z,19.83
2018-12-31T06:51:43.259Z,18.17
2018-12-31T06:54:12.303Z,17.37
2018-12-31T06:56:41.438Z,20.10
2018-12-31T06:59:10.487Z,16.00
2018-12-31T07:01:39.288Z,16.43
2018-12-31T07:04:08.257Z,15.77
2018-12-31T07:06:37.136Z,17.10
2018-12-31T07:09:07.030Z,18.97
2018-12-31T07:11:36.492Z,16.73
2018-12-31T07:14:05.370Z,17.90
2018-12-31T07:16:34.213Z,17.10
2018-12-31T07:19:03.737Z,18.20
2018-12-31T07:21:32.539Z,18.07
2018-12-31T07:24:02.336Z,21.27
2018-12-31T07:26:31.139Z,18.87
2018-12-31T07:29:00.015Z,23.67
2018-12-31T07:31:28.943Z,22.30
2018-12-31T07:33:57.765Z,24.80
2018-12-31T07:36:26.565Z,24.47
2018-12-31T07:38:56.525Z,27.40
2018-12-31T07:41:25.780Z,26.53
2018-12-31T07:43:54.707Z,24.73
2018-12-31T07:46:24.867Z,25.17
2018-12-31T07:48:53.764Z,24.57
2018-12-31T07:51:22.568Z,26.47
2018-12-31T07:53:51.409Z,29.47
2018-12-31T07:56:20.801Z,28.27
2018-12-31T07:58:50.096Z,29.30
2018-12-31T08:01:19.080Z,32.30
2018-12-31T08:03:48.231Z,29.87
2018-12-31T08:06:17.332Z,28.90
2018-12-31T08:08:46.508Z,31.97
2018-12-31T08:11:15.477Z,30.43
2018-12-31T08:13:44.907Z,31.03
2018-12-31T08:16:13.710Z,31.73
2018-12-31T08:18:42.736Z,34.43
2018-12-31T08:21:11.592Z,34.00
2018-12-31T08:23:40.490Z,30.57
2018-12-31T08:26:09.317Z,32.03
2018-12-31T08:28:38.162Z,30.27
2018-12-31T08:31:07.048Z,29.87
2018-12-31T08:33:36.499Z,27.07
2018-12-31T08:36:05.373Z,32.40
2018-12-31T08:38:34.787Z,29.43
2018-12-31T08:41:03.904Z,27.80
2018-12-31T08:43:32.711Z,29.63
2018-12-31T08:46:01.498Z,27.67
2018-12-31T08:48:30.718Z,32.40
2018-12-31T08:50:59.716Z,29.47
2018-12-31T08:53:28.950Z,28.40
2018-12-31T08:55:58.283Z,31.63
2018-12-31T08:58:27.063Z,29.43
2018-12-31T09:00:55.873Z,34.43
2018-12-31T09:03:24.762Z,31.83
2018-12-31T09:05:53.641Z,30.60
2018-12-31T09:08:22.532Z,34.03
2018-12-31T09:10:51.736Z,30.37
2018-12-31T09:13:20.547Z,33.57
2018-12-31T09:15:51.244Z,32.33
2018-12-31T09:18:20.039Z,28.93
2018-12-31T09:20:48.841Z,36.50
2018-12-31T09:23:18.022Z,31.10
2018-12-31T09:25:47.512Z,33.93
2018-12-31T09:28:16.421Z,34.03
2018-12-31T09:30:45.729Z,32.53
2018-12-31T09:33:14.695Z,32.10
2018-12-31T09:35:43.647Z,34.40
2018-12-31T09:38:12.884Z,34.73
2018-12-31T09:40:41.983Z,34.07
2018-12-31T09:43:10.771Z,34.07
2018-12-31T09:45:39.741Z,31.73
2018-12-31T09:48:08.695Z,33.13
2018-12-31T09:50:37.627Z,31.63
2018-12-31T09:53:06.672Z,34.80
2018-12-31T09:55:35.504Z,33.93
2018-12-31T09:58:04.439Z,34.80
2018-12-31T10:00:34.156Z,38.33
2018-12-31T10:03:03.559Z,34.10
2018-12-31T10:05:32.448Z,32.40
2018-12-31T10:08:01.392Z,31.30
2018-12-31T10:10:30.202Z,35.43
2018-12-31T10:12:59.017Z,31.33
2018-12-31T10:15:28.390Z,34.97
2018-12-31T10:17:58.235Z,31.40
2018-12-31T10:20:27.049Z,30.43
2018-12-31T10:22:56.170Z,33.40
2018-12-31T10:25:25.731Z,28.37
2018-12-31T10:27:54.527Z,31.00
2018-12-31T10:30:23.409Z,30.53
2018-12-31T10:32:53.109Z,31.60
2018-12-31T10:35:22.237Z,30.83
2018-12-31T10:37:51.406Z,30.93
2018-12-31T10:40:20.295Z,29.97
2018-12-31T10:42:49.101Z,30.33
2018-12-31T10:45:18.357Z,32.23
2018-12-31T10:47:47.699Z,31.93
2018-12-31T10:50:16.510Z,34.40
2018-12-31T10:52:45.307Z,33.53
2018-12-31T10:55:14.455Z,32.43
2018-12-31T10:57:43.267Z,33.97
2018-12-31T11:00:12.348Z,30.37
2018-12-31T11:02:41.353Z,32.30
2018-12-31T11:05:10.228Z,30.93
2018-12-31T11:07:39.080Z,30.70
2018-12-31T11:10:08.410Z,30.97
2018-12-31T11:12:37.612Z,32.17
2018-12-31T11:15:07.133Z,32.40
2018-12-31T11:17:36.214Z,31.57
2018-12-31T11:20:05.331Z,34.93
2018-12-31T11:22:34.296Z,32.73
2018-12-31T11:25:03.423Z,31.23
2018-12-31T11:27:32.614Z,32.77
2018-12-31T11:30:01.780Z,34.10
2018-12-31T11:32:30.647Z,30.90
2018-12-31T11:34:59.676Z,31.80
2018-12-31T11:37:34.493Z,31.03
2018-12-31T11:40:00.828Z,32.77
2018-12-31T11:42:30.667Z,31.27
2018-12-31T11:44:59.670Z,33.30
2018-12-31T11:47:28.453Z,30.77
2018-12-31T11:49:59.627Z,35.60
2018-12-31T11:52:28.415Z,31.27
2018-12-31T11:54:57.292Z,32.00
2018-12-31T11:57:26.373Z,35.60
2018-12-31T11:59:55.470Z,34.03
2018-12-31T12:02:24.284Z,31.83
2018-12-31T12:04:53.225Z,33.20
2018-12-31T12:07:22.389Z,35.87
2018-12-31T12:09:51.207Z,33.93
2018-12-31T12:12:20.416Z,32.83
2018-12-31T12:14:49.220Z,30.73
2018-12-31T12:17:18.127Z,31.93
2018-12-31T12:19:47.415Z,32.17
2018-12-31T12:22:16.293Z,33.13
2018-12-31T12:24:45.587Z,33.20
2018-12-31T12:27:14.642Z,31.13
2018-12-31T12:29:43.448Z,32.17
2018-12-31T12:32:12.264Z,32.77
2018-12-31T12:34:41.355Z,31.67
2018-12-31T12:37:10.748Z,30.30
2018-12-31T12:39:39.936Z,30.50
2018-12-31T12:42:08.834Z,31.53
2018-12-31T12:44:38.125Z,29.50
2018-12-31T12:47:08.297Z,30.97
2018-12-31T12:49:37.789Z,27.90
2018-12-31T12:52:06.680Z,29.50
2018-12-31T12:54:36.267Z,27.40
2018-12-31T12:57:05.281Z,30.70
2018-12-31T12:59:34.230Z,30.03
2018-12-31T13:02:03.474Z,28.30
2018-12-31T13:04:32.418Z,27.50
2018-12-31T13:07:01.303Z,28.30
2018-12-31T13:09:30.468Z,28.17
2018-12-31T13:11:59.821Z,28.63
2018-12-31T13:14:28.639Z,26.07
2018-12-31T13:16:57.596Z,29.23
2018-12-31T13:19:26.457Z,26.10
2018-12-31T13:21:55.510Z,29.57
2018-12-31T13:24:25.062Z,26.10
2018-12-31T13:26:54.213Z,27.20
2018-12-31T13:29:23.360Z,26.50
2018-12-31T13:31:52.713Z,27.60
2018-12-31T13:34:21.563Z,25.70
2018-12-31T13:36:50.351Z,26.30
2018-12-31T13:39:19.266Z,25.97
2018-12-31T13:41:48.059Z,25.53
2018-12-31T13:44:16.928Z,25.77
2018-12-31T13:46:45.740Z,24.77
2018-12-31T13:49:14.959Z,24.83
2018-12-31T13:51:44.154Z,23.67
2018-12-31T13:54:13.968Z,26.80
2018-12-31T13:56:42.804Z,24.67
2018-12-31T13:59:11.641Z,28.40
2018-12-31T14:01:40.548Z,22.73
2018-12-31T14:04:09.659Z,26.70
2018-12-31T14:06:38.781Z,25.90
2018-12-31T14:09:08.085Z,24.07
2018-12-31T14:11:39.091Z,25.37
2018-12-31T14:14:08.701Z,25.37
2018-12-31T14:16:37.524Z,23.63
2018-12-31T14:19:06.716Z,24.10
2018-12-31T14:21:35.893Z,25.33
2018-12-31T14:24:04.755Z,25.70
2018-12-31T14:26:33.942Z,25.53
2018-12-31T14:29:03.322Z,25.20
2018-12-31T14:31:32.124Z,24.53
2018-12-31T14:34:01.026Z,22.60
2018-12-31T14:36:33.312Z,22.73
2018-12-31T14:39:02.374Z,23.67
2018-12-31T14:41:31.490Z,24.33
2018-12-31T14:44:00.623Z,24.00
2018-12-31T14:46:29.423Z,22.20
2018-12-31T14:48:58.523Z,23.63
2018-12-31T14:51:27.492Z,23.83
2018-12-31T14:53:56.386Z,21.63
2018-12-31T14:56:25.291Z,23.97
2018-12-31T14:58:54.196Z,21.97
2018-12-31T15:01:23.521Z,23.67
2018-12-31T15:03:52.617Z,23.50
2018-12-31T15:06:21.473Z,24.40
2018-12-31T15:08:50.691Z,24.03
2018-12-31T15:11:19.796Z,24.80
2018-12-31T15:13:48.601Z,23.60
2018-12-31T15:16:17.469Z,23.57
2018-12-31T15:18:46.450Z,26.87
2018-12-31T15:21:15.387Z,26.03
2018-12-31T15:23:44.533Z,27.80
2018-12-31T15:26:13.408Z,27.10
2018-12-31T15:28:43.063Z,27.97
2018-12-31T15:31:11.887Z,28.10
2018-12-31T15:33:40.780Z,27.30
2018-12-31T15:36:09.593Z,29.37
2018-12-31T15:38:38.408Z,30.00
2018-12-31T15:41:07.815Z,28.27
2018-12-31T15:43:36.683Z,28.60
2018-12-31T15:46:05.816Z,26.73
2018-12-31T15:48:34.791Z,29.23
2018-12-31T15:51:03.864Z,29.67
2018-12-31T15:53:32.934Z,28.00
2018-12-31T15:56:02.034Z,27.03
2018-12-31T15:58:31.159Z,29.57
2018-12-31T16:00:59.964Z,27.97
2018-12-31T16:03:28.807Z,29.43
2018-12-31T16:05:58.305Z,28.27
2018-12-31T16:08:27.591Z,28.17
2018-12-31T16:10:56.455Z,30.80
2018-12-31T16:13:25.712Z,29.60
2018-12-31T16:15:54.630Z,28.10
2018-12-31T16:18:23.845Z,28.80
2018-12-31T16:20:52.707Z,25.67
2018-12-31T16:23:21.595Z,25.47
2018-12-31T16:25:50.695Z,28.53
2018-12-31T16:28:19.980Z,37.30
2018-12-31T16:30:49.843Z,32.77
2018-12-31T16:33:19.561Z,30.70
2018-12-31T16:35:48.554Z,30.40
2018-12-31T16:38:17.662Z,30.20
2018-12-31T16:40:46.542Z,27.27
2018-12-31T16:43:15.935Z,32.17
2018-12-31T16:45:44.938Z,31.67
2018-12-31T16:48:13.795Z,29.43
2018-12-31T16:50:42.634Z,30.37
2018-12-31T16:53:11.567Z,29.10
2018-12-31T16:55:41.219Z,29.90
2018-12-31T16:58:10.073Z,28.23
2018-12-31T17:00:39.073Z,29.13
2018-12-31T17:03:08.313Z,31.27
2018-12-31T17:05:37.256Z,28.17
2018-12-31T17:08:06.602Z,32.00
2018-12-31T17:10:35.959Z,34.20
2018-12-31T17:13:04.755Z,36.53
2018-12-31T17:15:33.578Z,32.97
2018-12-31T17:18:02.423Z,36.00
2018-12-31T17:20:31.358Z,35.80
2018-12-31T17:23:00.151Z,33.97
2018-12-31T17:25:29.466Z,32.73
2018-12-31T17:27:58.504Z,33.10
2018-12-31T17:30:27.571Z,32.07
2018-12-31T17:32:56.395Z,32.50
2018-12-31T17:35:25.217Z,29.60
2018-12-31T17:37:54.045Z,33.23
2018-12-31T17:40:22.925Z,32.20
2018-12-31T17:42:51.981Z,34.10
2018-12-31T17:45:23.190Z,31.03
2018-12-31T17:47:51.920Z,36.37
2018-12-31T17:50:21.231Z,32.70
2018-12-31T17:52:50.743Z,32.90
2018-12-31T17:55:19.884Z,30.17
2018-12-31T17:57:48.762Z,29.00
2018-12-31T18:00:17.733Z,32.27
2018-12-31T18:02:46.691Z,29.23
2018-12-31T18:05:15.483Z,31.87
2018-12-31T18:07:44.421Z,30.77
2018-12-31T18:10:13.394Z,31.53
2018-12-31T18:12:42.264Z,33.00
2018-12-31T18:15:11.445Z,35.50
2018-12-31T18:17:40.246Z,42.67
2018-12-31T18:20:10.186Z,39.33
2018-12-31T18:22:39.407Z,39.67
2018-12-31T18:25:08.586Z,37.70
2018-12-31T18:27:37.423Z,39.20
2018-12-31T18:30:07.620Z,38.40
2018-12-31T18:32:36.424Z,39.23
2018-12-31T18:35:05.352Z,38.27
2018-12-31T18:37:41.486Z,36.43
2018-12-31T18:40:05.514Z,35.53
2018-12-31T18:42:34.451Z,36.80
2018-12-31T18:45:03.339Z,39.60
2018-12-31T18:47:32.135Z,39.80
2018-12-31T18:50:01.319Z,37.93
2018-12-31T18:52:30.115Z,35.20
2018-12-31T18:54:58.961Z,32.63
2018-12-31T18:57:27.831Z,33.90
2018-12-31T18:59:56.626Z,36.67
2018-12-31T19:02:26.104Z,36.33
2018-12-31T19:04:55.153Z,36.03
2018-12-31T19:07:24.265Z,37.37
2018-12-31T19:09:53.461Z,36.93
2018-12-31T19:12:22.359Z,37.63
2018-12-31T19:14:51.294Z,36.67
2018-12-31T19:17:20.294Z,39.90
2018-12-31T19:19:49.279Z,34.97
2018-12-31T19:22:18.227Z,38.93
2018-12-31T19:24:47.243Z,41.40
2018-12-31T19:27:16.747Z,41.60
2018-12-31T19:29:45.671Z,39.57
2018-12-31T19:32:15.090Z,40.70
2018-12-31T19:34:44.310Z,38.13
2018-12-31T19:37:13.550Z,41.60
2018-12-31T19:39:42.752Z,42.80
2018-12-31T19:42:11.852Z,37.27
2018-12-31T19:44:40.955Z,37.30
2018-12-31T19:47:09.809Z,39.57
2018-12-31T19:49:39.066Z,42.50
2018-12-31T19:52:08.709Z,43.57
2018-12-31T19:54:37.875Z,40.57
2018-12-31T19:57:07.092Z,41.37
2018-12-31T19:59:36.005Z,44.83
2018-12-31T20:02:05.539Z,42.13
2018-12-31T20:04:34.991Z,38.43
2018-12-31T20:07:03.788Z,41.47
2018-12-31T20:09:32.610Z,38.60
2018-12-31T20:12:01.733Z,38.27
2018-12-31T20:14:30.532Z,37.80
2018-12-31T20:16:59.404Z,41.40
2018-12-31T20:19:28.231Z,37.60
2018-12-31T20:21:57.385Z,39.50
2018-12-31T20:24:26.553Z,37.97
2018-12-31T20:26:55.451Z,35.67
2018-12-31T20:29:24.617Z,38.23
2018-12-31T20:31:53.806Z,37.60
2018-12-31T20:34:22.687Z,39.43
2018-12-31T20:36:51.564Z,36.97
2018-12-31T20:39:20.390Z,39.17
2018-12-31T20:41:49.439Z,41.87
2018-12-31T20:44:18.410Z,40.20
2018-12-31T20:46:47.248Z,56.70
2018-12-31T20:49:17.039Z,39.33
2018-12-31T20:51:46.280Z,36.60
2018-12-31T20:54:15.195Z,33.70
2018-12-31T20:56:44.084Z,36.00
2018-12-31T20:59:13.188Z,52.90
2018-12-31T21:01:42.083Z,35.37
2018-12-31T21:04:10.947Z,33.33
2018-12-31T21:06:39.870Z,31.77
2018-12-31T21:09:09.079Z,32.77
2018-12-31T21:11:38.310Z,31.30
2018-12-31T21:14:07.157Z,31.50
2018-12-31T21:16:35.965Z,31.17
2018-12-31T21:19:04.934Z,30.10
2018-12-31T21:21:33.824Z,32.67
2018-12-31T21:24:02.796Z,31.93
2018-12-31T21:26:31.728Z,33.10
2018-12-31T21:29:00.559Z,27.90
2018-12-31T21:31:29.729Z,29.93
2018-12-31T21:33:58.998Z,31.60
2018-12-31T21:36:28.125Z,31.40
2018-12-31T21:38:57.054Z,32.07
2018-12-31T21:41:25.862Z,29.30
2018-12-31T21:43:54.701Z,27.70
2018-12-31T21:46:23.572Z,26.90
2018-12-31T21:48:52.384Z,27.90
2018-12-31T21:51:21.511Z,31.23
2018-12-31T21:53:50.392Z,30.97
2018-12-31T21:56:19.286Z,28.70
2018-12-31T21:58:48.091Z,30.60
2018-12-31T22:01:17.354Z,33.53
2018-12-31T22:03:46.604Z,30.53
2018-12-31T22:06:15.508Z,33.93
2018-12-31T22:08:44.333Z,37.90
2018-12-31T22:11:13.262Z,33.97
2018-12-31T22:13:42.088Z,44.10
2018-12-31T22:16:10.923Z,37.00
2018-12-31T22:18:39.836Z,34.90
2018-12-31T22:21:08.978Z,35.77
2018-12-31T22:23:37.842Z,33.00
2018-12-31T22:26:06.694Z,32.37
2018-12-31T22:28:35.630Z,31.03
2018-12-31T22:31:04.419Z,31.43
2018-12-31T22:33:33.472Z,33.50
2018-12-31T22:36:02.333Z,33.73
2018-12-31T22:38:31.128Z,33.77
2018-12-31T22:40:59.942Z,36.67
2018-12-31T22:43:29.079Z,31.13
2018-12-31T22:45:58.401Z,33.53
2018-12-31T22:48:27.260Z,32.70
2018-12-31T22:50:56.197Z,34.77
2018-12-31T22:53:25.771Z,38.00
2018-12-31T22:55:54.850Z,39.30
2018-12-31T22:58:23.645Z,39.97
2018-12-31T23:00:52.514Z,53.00
2018-12-31T23:03:21.524Z,386.73
2018-12-31T23:05:50.438Z,180.27
2018-12-31T23:08:19.681Z,293.97
2018-12-31T23:10:48.561Z,218.60
2018-12-31T23:13:17.829Z,239.57
2018-12-31T23:15:47.474Z,209.83
2018-12-31T23:18:16.378Z,233.10
2018-12-31T23:20:45.704Z,212.00
2018-12-31T23:23:14.617Z,294.20
2018-12-31T23:25:43.866Z,165.43
2018-12-31T23:28:12.743Z,150.30
2018-12-31T23:30:41.636Z,164.70
2018-12-31T23:33:10.924Z,143.20
2018-12-31T23:35:39.775Z,139.37
2018-12-31T23:38:08.585Z,146.53
2018-12-31T23:40:37.772Z,122.97
2018-12-31T23:43:06.900Z,120.13
2018-12-31T23:45:36.251Z,125.37
2018-12-31T23:48:05.260Z,119.03
2018-12-31T23:50:34.130Z,110.37
2018-12-31T23:53:02.980Z,100.70
2018-12-31T23:55:32.164Z,93.23
2018-12-31T23:58:01.744Z,99.53
